CheckWX is a tool to help pilots better visualize weather data.  It is not intended as a substitute for an official pre-flight weather briefing.

01:52:57 UTC

VMMC TAF
Macau International Airport
Taipa, Macau
TAF VMMC 182300Z 1900/2006 VRB03KT 7000 FEW020 TEMPO 1900/1906 2500 BR TEMPO 1906/1916 13010KT 4000 BR TEMPO 1916/2006 1400 BR

Mar-19@
00:00 UTC

Mar-19 @ 00:00 UTC

Mar-20@
06:00 UTC

Mar-20 @ 06:00 UTC

TAF VMMC 182300Z 1900/2006 VRB03KT 7000 FEW020
Wind
  • Variable at 3 KTS
Cloud Levels
  • Few at 2,000' AGL

Mar-19@
00:00 UTC

Mar-19 @ 00:00 UTC

Mar-19@
06:00 UTC

Mar-19 @ 06:00 UTC

TEMPO 1900/1906 2500 BR

Temporary

Temporary Changes expected for less than half the time period

Conditions
Mist

Mar-19@
06:00 UTC

Mar-19 @ 06:00 UTC

Mar-19@
16:00 UTC

Mar-19 @ 16:00 UTC

TEMPO 1906/1916 13010KT 4000 BR

Temporary

Temporary Changes expected for less than half the time period

Wind
  • 130° at 10 KTS
Conditions
Mist

Mar-19@
16:00 UTC

Mar-19 @ 16:00 UTC

Mar-20@
06:00 UTC

Mar-20 @ 06:00 UTC

TEMPO 1916/2006 1400 BR

Temporary

Temporary Changes expected for less than half the time period

Conditions
Mist